TimeCDT,TemperatureF,Dew PointF,Humidity,Sea Level PressureIn,VisibilityMPH,Wind Direction,Wind SpeedMPH,Gust SpeedMPH,PrecipitationIn,Events,Conditions,WindDirDegrees,DateUTC
12:54 AM,60.1,43.0,53,29.95,10.0,SSE,13.8,21.9,N/A,,Partly Cloudy,160,2011-11-03 05:54:00
1:54 AM,63.0,48.0,58,29.92,10.0,South,21.9,27.6,N/A,,Mostly Cloudy,170,2011-11-03 06:54:00
2:54 AM,64.0,51.1,63,29.88,10.0,South,19.6,29.9,N/A,,Overcast,180,2011-11-03 07:54:00
3:43 AM,60.8,55.4,82,29.90,1.5,SSW,13.8,21.9,0.07,Rain,Heavy Rain,200,2011-11-03 08:43:00
3:48 AM,60.8,55.4,82,29.90,3.0,SSW,12.7,-,0.15,Rain,Rain,210,2011-11-03 08:48:00
3:54 AM,60.1,55.9,86,29.89,3.0,SSW,11.5,-,0.16,Rain,Rain,200,2011-11-03 08:54:00
4:19 AM,60.8,57.2,88,29.89,2.0,SSW,13.8,-,0.09,Rain,Rain,200,2011-11-03 09:19:00
4:27 AM,60.8,57.2,88,29.90,3.0,WSW,11.5,-,0.11,Rain,Rain,240,2011-11-03 09:27:00
4:36 AM,60.8,57.2,88,29.90,3.0,SW,10.4,-,N/A,Rain,Rain,220,2011-11-03 09:36:00
4:54 AM,60.1,57.9,93,29.89,3.0,SW,12.7,19.6,0.21,Rain,Heavy Rain,220,2011-11-03 09:54:00
5:54 AM,57.0,53.1,87,29.91,5.0,West,15.0,21.9,0.10,Rain,Light Rain,270,2011-11-03 10:54:00
6:01 AM,55.4,53.6,94,29.92,7.0,West,21.9,29.9,0.00,Rain,Light Rain,280,2011-11-03 11:01:00
6:54 AM,51.1,46.0,83,29.94,10.0,West,17.3,27.6,0.00,,Overcast,260,2011-11-03 11:54:00
7:54 AM,48.9,43.0,80,29.96,10.0,WSW,16.1,24.2,N/A,,Mostly Cloudy,250,2011-11-03 12:54:00
8:35 AM,48.2,42.8,82,29.98,10.0,West,15.0,24.2,N/A,,Overcast,260,2011-11-03 13:35:00
8:54 AM,48.0,42.1,80,29.98,10.0,West,10.4,24.2,N/A,,Overcast,260,2011-11-03 13:54:00
9:54 AM,48.2,39.2,71,30.00,10.0,West,19.6,26.5,N/A,,Overcast,260,2011-11-03 14:54:00
10:01 AM,48.2,39.2,71,30.00,10.0,West,17.3,25.3,N/A,,Overcast,270,2011-11-03 15:01:00
10:33 AM,48.2,39.2,71,30.01,10.0,West,18.4,27.6,N/A,,Overcast,270,2011-11-03 15:33:00
10:54 AM,48.9,37.9,66,30.00,10.0,West,17.3,25.3,N/A,,Overcast,260,2011-11-03 15:54:00
11:44 AM,48.2,35.6,62,30.00,10.0,West,24.2,31.1,N/A,,Overcast,280,2011-11-03 16:44:00
11:54 AM,51.1,37.0,59,30.00,10.0,West,23.0,31.1,N/A,,Mostly Cloudy,280,2011-11-03 16:54:00
12:54 PM,48.9,36.0,61,29.99,10.0,West,17.3,32.2,N/A,,Overcast,270,2011-11-03 17:54:00
1:54 PM,50.0,37.0,61,29.99,10.0,WNW,20.7,26.5,N/A,,Overcast,290,2011-11-03 18:54:00
2:54 PM,48.9,37.0,64,30.00,10.0,WNW,18.4,26.5,N/A,,Overcast,290,2011-11-03 19:54:00
3:38 PM,48.2,37.4,66,30.01,10.0,West,23.0,31.1,N/A,,Overcast,280,2011-11-03 20:38:00
3:54 PM,48.9,37.9,66,30.01,10.0,West,12.7,23.0,N/A,,Overcast,280,2011-11-03 20:54:00
4:07 PM,48.2,37.4,66,30.01,10.0,WNW,18.4,25.3,N/A,,Overcast,290,2011-11-03 21:07:00
4:54 PM,48.9,37.0,64,30.03,10.0,West,19.6,26.5,N/A,,Overcast,280,2011-11-03 21:54:00
5:54 PM,48.9,37.0,64,30.04,10.0,West,15.0,24.2,N/A,,Overcast,280,2011-11-03 22:54:00
6:54 PM,48.9,37.9,66,30.06,10.0,WNW,17.3,29.9,N/A,,Overcast,300,2011-11-03 23:54:00
7:54 PM,48.0,37.9,68,30.06,10.0,WNW,15.0,-,N/A,,Overcast,290,2011-11-04 00:54:00
8:23 PM,48.2,37.4,66,30.06,10.0,WNW,17.3,23.0,N/A,,Overcast,300,2011-11-04 01:23:00
8:54 PM,48.0,37.9,68,30.07,10.0,WNW,15.0,20.7,N/A,,Overcast,300,2011-11-04 01:54:00
9:54 PM,48.0,39.0,71,30.08,10.0,WNW,16.1,21.9,N/A,,Overcast,290,2011-11-04 02:54:00
10:54 PM,48.0,39.9,74,30.08,10.0,WNW,15.0,-,N/A,,Overcast,300,2011-11-04 03:54:00
11:54 PM,48.0,39.9,74,30.08,10.0,NW,11.5,-,N/A,,Overcast,310,2011-11-04 04:54:00